createdAt,value
2023-03-24T04:09:42.039Z,7.10
2023-03-24T04:11:03.883Z,7.20
2023-03-24T04:12:23.703Z,7.10
2023-03-24T04:13:32.214Z,7.20
2023-03-24T04:14:59.825Z,7.20
2023-03-24T04:16:09.969Z,7.20
2023-03-24T04:17:24.556Z,7.20
2023-03-24T04:18:38.776Z,7.20
2023-03-24T04:19:56.016Z,7.20
2023-03-24T04:21:08.869Z,7.20
2023-03-24T04:22:25.284Z,7.20
2023-03-24T04:23:33.006Z,7.20
2023-03-24T04:24:45.549Z,7.20
2023-03-24T04:25:58.593Z,7.20
2023-03-24T04:51:19.292Z,7.20
2023-03-24T04:52:21.359Z,7.40
2023-03-24T04:55:56.305Z,7.30
2023-03-24T04:58:03.230Z,7.30
2023-03-24T04:59:07.396Z,7.40
2023-03-24T05:00:13.017Z,7.30
2023-03-24T05:01:17.134Z,7.40
2023-03-24T05:02:21.777Z,7.40
2023-03-24T05:03:24.094Z,7.40
2023-03-24T05:04:29.754Z,7.40
2023-03-24T05:05:31.772Z,7.40
2023-03-24T05:06:34.749Z,7.40
2023-03-24T05:07:36.734Z,7.40
2023-03-24T05:08:39.904Z,7.40
2023-03-24T05:09:41.908Z,7.40
2023-03-24T05:10:45.582Z,7.40
2023-03-24T05:11:47.872Z,7.50
2023-03-24T05:12:51.054Z,7.50
2023-03-24T05:13:53.568Z,7.50
2023-03-24T05:14:57.913Z,7.50
2023-03-24T05:15:59.907Z,7.50
2023-03-24T05:17:02.984Z,7.50
2023-03-24T05:18:05.672Z,7.50
2023-03-24T05:19:08.879Z,7.50
2023-03-24T05:20:11.609Z,7.50
2023-03-24T05:26:31.298Z,7.50
2023-03-24T05:27:34.803Z,7.60
2023-03-24T05:28:37.766Z,7.70
2023-03-24T05:29:39.740Z,7.60
2023-03-24T05:30:44.073Z,7.70
2023-03-24T05:31:46.204Z,7.70
2023-03-24T05:32:49.304Z,7.70
2023-03-24T05:33:51.475Z,7.70
2023-03-24T05:34:54.577Z,7.70
2023-03-24T05:35:56.626Z,7.60
2023-03-24T05:36:59.645Z,7.70
2023-03-24T05:38:02.627Z,7.70
2023-03-24T05:39:04.672Z,7.70
2023-03-24T05:40:09.108Z,7.70
2023-03-24T05:41:11.264Z,7.70
2023-03-24T05:42:14.272Z,7.70
2023-03-24T05:43:16.333Z,7.70
2023-03-24T05:44:19.320Z,7.70
2023-03-24T05:45:21.289Z,7.70
2023-03-24T05:46:26.648Z,7.70
2023-03-24T05:47:28.753Z,7.70
2023-03-24T05:48:31.767Z,7.70
2023-03-24T05:49:34.141Z,7.80
2023-03-24T05:50:37.172Z,7.80
2023-03-24T05:51:39.152Z,7.80
2023-03-24T05:52:42.487Z,7.80
2023-03-24T05:53:44.466Z,7.80
2023-03-24T05:54:51.947Z,7.80
2023-03-24T05:55:53.896Z,7.90
2023-03-24T05:56:56.985Z,7.90
2023-03-24T05:58:02.039Z,7.90
2023-03-24T05:59:05.114Z,7.90
2023-03-24T06:00:10.587Z,8.00
2023-03-24T06:01:13.626Z,7.90
2023-03-24T06:02:17.005Z,8.00
2023-03-24T06:03:20.091Z,8.00
2023-03-24T06:04:22.511Z,8.10
2023-03-24T06:05:25.666Z,8.00
2023-03-24T06:06:28.732Z,8.00
2023-03-24T06:07:32.306Z,8.10
2023-03-24T06:08:34.472Z,8.10
2023-03-24T06:09:40.456Z,8.10
2023-03-24T06:10:43.142Z,8.10
2023-03-24T06:11:46.155Z,8.20
2023-03-24T06:12:48.151Z,8.20
2023-03-24T06:13:51.229Z,8.20
2023-03-24T06:14:53.254Z,8.20
2023-03-24T06:15:59.035Z,8.20
2023-03-24T06:17:02.407Z,8.10
2023-03-24T06:18:08.762Z,8.20
2023-03-24T06:19:10.832Z,8.20
2023-03-24T06:20:16.284Z,8.20
2023-03-24T06:21:18.748Z,8.20
2023-03-24T06:22:21.985Z,8.20
2023-03-24T06:23:25.820Z,8.20
2023-03-24T06:24:29.648Z,8.20
2023-03-24T06:25:33.623Z,8.30
2023-03-24T06:26:36.464Z,8.30
2023-03-24T06:27:46.082Z,8.30
2023-03-24T06:28:51.889Z,8.30
2023-03-24T06:29:53.933Z,8.40
2023-03-24T06:30:58.864Z,8.40
2023-03-24T06:32:01.216Z,8.40
2023-03-24T06:33:05.946Z,8.40
2023-03-24T06:34:11.891Z,8.40
